sensor_id;sensor_type;location;lat;lon;timestamp;P1;durP1;ratioP1;P2;durP2;ratioP2
789;SDS011;378;48.844;9.156;2024-03-25T00:01:28;5.47;;;2.38;;
789;SDS011;378;48.844;9.156;2024-03-25T00:03:54;5.53;;;2.40;;
789;SDS011;378;48.844;9.156;2024-03-25T00:06:19;3.85;;;2.28;;
789;SDS011;378;48.844;9.156;2024-03-25T00:08:45;6.78;;;2.50;;
789;SDS011;378;48.844;9.156;2024-03-25T00:11:12;3.75;;;2.55;;
789;SDS011;378;48.844;9.156;2024-03-25T00:13:38;5.35;;;2.78;;
789;SDS011;378;48.844;9.156;2024-03-25T00:16:04;4.97;;;2.40;;
789;SDS011;378;48.844;9.156;2024-03-25T00:18:31;9.00;;;2.53;;
789;SDS011;378;48.844;9.156;2024-03-25T00:20:57;5.38;;;2.58;;
789;SDS011;378;48.844;9.156;2024-03-25T00:23:23;4.55;;;2.67;;
789;SDS011;378;48.844;9.156;2024-03-25T00:25:49;6.57;;;2.60;;
789;SDS011;378;48.844;9.156;2024-03-25T00:28:15;7.85;;;2.60;;
789;SDS011;378;48.844;9.156;2024-03-25T00:30:41;6.72;;;2.90;;
789;SDS011;378;48.844;9.156;2024-03-25T00:33:09;5.93;;;2.53;;
789;SDS011;378;48.844;9.156;2024-03-25T00:35:36;9.52;;;2.42;;
789;SDS011;378;48.844;9.156;2024-03-25T00:38:02;8.52;;;2.95;;
789;SDS011;378;48.844;9.156;2024-03-25T00:40:29;5.50;;;2.58;;
789;SDS011;378;48.844;9.156;2024-03-25T00:42:55;7.47;;;2.90;;
789;SDS011;378;48.844;9.156;2024-03-25T00:45:22;6.43;;;2.78;;
789;SDS011;378;48.844;9.156;2024-03-25T00:47:50;6.07;;;2.85;;
789;SDS011;378;48.844;9.156;2024-03-25T00:50:16;5.10;;;2.45;;
789;SDS011;378;48.844;9.156;2024-03-25T00:52:42;6.25;;;2.58;;
789;SDS011;378;48.844;9.156;2024-03-25T00:55:08;7.53;;;2.72;;
789;SDS011;378;48.844;9.156;2024-03-25T00:57:34;8.23;;;2.60;;
789;SDS011;378;48.844;9.156;2024-03-25T01:00:00;6.88;;;2.40;;
789;SDS011;378;48.844;9.156;2024-03-25T01:02:26;6.28;;;2.47;;
789;SDS011;378;48.844;9.156;2024-03-25T01:04:53;4.78;;;2.22;;
789;SDS011;378;48.844;9.156;2024-03-25T01:07:20;7.85;;;2.30;;
789;SDS011;378;48.844;9.156;2024-03-25T01:09:46;4.60;;;2.40;;
789;SDS011;378;48.844;9.156;2024-03-25T01:12:11;4.35;;;2.38;;
789;SDS011;378;48.844;9.156;2024-03-25T01:14:37;10.35;;;3.35;;
789;SDS011;378;48.844;9.156;2024-03-25T01:17:03;7.63;;;2.60;;
789;SDS011;378;48.844;9.156;2024-03-25T01:19:30;4.35;;;2.25;;
789;SDS011;378;48.844;9.156;2024-03-25T01:21:56;6.35;;;2.40;;
789;SDS011;378;48.844;9.156;2024-03-25T01:24:21;3.70;;;2.00;;
789;SDS011;378;48.844;9.156;2024-03-25T01:26:47;8.38;;;2.70;;
789;SDS011;378;48.844;9.156;2024-03-25T01:29:14;8.10;;;2.55;;
789;SDS011;378;48.844;9.156;2024-03-25T01:31:40;7.65;;;2.35;;
789;SDS011;378;48.844;9.156;2024-03-25T01:34:06;2.97;;;2.10;;
789;SDS011;378;48.844;9.156;2024-03-25T01:36:38;7.90;;;2.45;;
789;SDS011;378;48.844;9.156;2024-03-25T01:39:04;4.68;;;2.35;;
789;SDS011;378;48.844;9.156;2024-03-25T01:41:30;5.28;;;3.25;;
789;SDS011;378;48.844;9.156;2024-03-25T01:43:57;4.97;;;2.30;;
789;SDS011;378;48.844;9.156;2024-03-25T01:46:24;4.78;;;2.20;;
789;SDS011;378;48.844;9.156;2024-03-25T01:48:50;4.10;;;2.60;;
789;SDS011;378;48.844;9.156;2024-03-25T01:51:18;6.95;;;2.25;;
789;SDS011;378;48.844;9.156;2024-03-25T01:53:47;9.95;;;2.05;;
789;SDS011;378;48.844;9.156;2024-03-25T01:56:14;4.45;;;2.20;;
789;SDS011;378;48.844;9.156;2024-03-25T01:58:42;5.43;;;2.28;;
789;SDS011;378;48.844;9.156;2024-03-25T02:01:08;4.40;;;2.28;;
789;SDS011;378;48.844;9.156;2024-03-25T02:03:39;5.97;;;1.90;;
789;SDS011;378;48.844;9.156;2024-03-25T02:06:06;4.35;;;2.40;;
789;SDS011;378;48.844;9.156;2024-03-25T02:08:38;4.32;;;2.10;;
789;SDS011;378;48.844;9.156;2024-03-25T02:11:07;3.53;;;2.20;;
789;SDS011;378;48.844;9.156;2024-03-25T02:13:37;5.15;;;2.03;;
789;SDS011;378;48.844;9.156;2024-03-25T02:16:04;5.60;;;2.03;;
789;SDS011;378;48.844;9.156;2024-03-25T02:18:30;5.68;;;2.13;;
789;SDS011;378;48.844;9.156;2024-03-25T02:20:57;6.35;;;1.92;;
789;SDS011;378;48.844;9.156;2024-03-25T02:23:23;8.40;;;1.98;;
789;SDS011;378;48.844;9.156;2024-03-25T02:25:50;6.80;;;2.03;;
789;SDS011;378;48.844;9.156;2024-03-25T02:28:16;4.13;;;2.30;;
789;SDS011;378;48.844;9.156;2024-03-25T02:30:42;5.13;;;2.40;;
789;SDS011;378;48.844;9.156;2024-03-25T02:33:08;5.95;;;2.40;;
789;SDS011;378;48.844;9.156;2024-03-25T02:35:34;3.22;;;2.15;;
789;SDS011;378;48.844;9.156;2024-03-25T02:38:01;10.05;;;2.35;;
789;SDS011;378;48.844;9.156;2024-03-25T02:40:28;4.72;;;2.17;;
789;SDS011;378;48.844;9.156;2024-03-25T02:42:55;4.43;;;2.47;;
789;SDS011;378;48.844;9.156;2024-03-25T02:45:20;6.40;;;2.50;;
789;SDS011;378;48.844;9.156;2024-03-25T02:47:48;2.30;;;2.10;;
789;SDS011;378;48.844;9.156;2024-03-25T02:50:14;3.90;;;2.22;;
789;SDS011;378;48.844;9.156;2024-03-25T02:52:40;6.07;;;2.40;;
789;SDS011;378;48.844;9.156;2024-03-25T02:55:09;7.13;;;2.55;;
789;SDS011;378;48.844;9.156;2024-03-25T02:57:35;3.92;;;2.17;;
789;SDS011;378;48.844;9.156;2024-03-25T03:00:00;5.07;;;2.47;;
789;SDS011;378;48.844;9.156;2024-03-25T03:02:27;2.78;;;1.83;;
789;SDS011;378;48.844;9.156;2024-03-25T03:04:53;3.63;;;2.38;;
789;SDS011;378;48.844;9.156;2024-03-25T03:07:19;4.40;;;2.20;;
789;SDS011;378;48.844;9.156;2024-03-25T03:09:45;3.75;;;2.40;;
789;SDS011;378;48.844;9.156;2024-03-25T03:12:11;3.10;;;2.13;;
789;SDS011;378;48.844;9.156;2024-03-25T03:14:37;8.98;;;2.28;;
789;SDS011;378;48.844;9.156;2024-03-25T03:17:08;3.97;;;2.53;;
789;SDS011;378;48.844;9.156;2024-03-25T03:19:34;4.32;;;2.47;;
789;SDS011;378;48.844;9.156;2024-03-25T03:22:01;9.18;;;2.45;;
789;SDS011;378;48.844;9.156;2024-03-25T03:24:27;6.72;;;3.17;;
789;SDS011;378;48.844;9.156;2024-03-25T03:26:53;3.78;;;2.50;;
789;SDS011;378;48.844;9.156;2024-03-25T03:29:19;4.95;;;2.80;;
789;SDS011;378;48.844;9.156;2024-03-25T03:31:45;6.40;;;2.65;;
789;SDS011;378;48.844;9.156;2024-03-25T03:34:11;8.38;;;3.03;;
789;SDS011;378;48.844;9.156;2024-03-25T03:36:37;9.82;;;3.13;;
789;SDS011;378;48.844;9.156;2024-03-25T03:39:03;7.88;;;2.80;;
789;SDS011;378;48.844;9.156;2024-03-25T03:41:29;8.88;;;2.83;;
789;SDS011;378;48.844;9.156;2024-03-25T03:43:54;9.15;;;2.80;;
789;SDS011;378;48.844;9.156;2024-03-25T03:46:20;6.93;;;3.08;;
789;SDS011;378;48.844;9.156;2024-03-25T03:48:46;7.18;;;2.38;;
789;SDS011;378;48.844;9.156;2024-03-25T03:51:12;9.30;;;2.50;;
789;SDS011;378;48.844;9.156;2024-03-25T03:53:38;6.45;;;2.97;;
789;SDS011;378;48.844;9.156;2024-03-25T03:56:04;11.23;;;2.88;;
789;SDS011;378;48.844;9.156;2024-03-25T03:58:33;6.15;;;2.50;;
789;SDS011;378;48.844;9.156;2024-03-25T04:00:59;7.32;;;2.60;;
789;SDS011;378;48.844;9.156;2024-03-25T04:03:26;9.85;;;2.65;;
789;SDS011;378;48.844;9.156;2024-03-25T04:05:52;6.72;;;2.83;;
789;SDS011;378;48.844;9.156;2024-03-25T04:08:18;5.63;;;2.58;;
789;SDS011;378;48.844;9.156;2024-03-25T04:10:44;7.78;;;2.63;;
789;SDS011;378;48.844;9.156;2024-03-25T04:13:10;7.35;;;2.50;;
789;SDS011;378;48.844;9.156;2024-03-25T04:15:38;5.40;;;2.53;;
789;SDS011;378;48.844;9.156;2024-03-25T04:18:06;8.82;;;3.05;;
789;SDS011;378;48.844;9.156;2024-03-25T04:20:38;6.97;;;2.70;;
789;SDS011;378;48.844;9.156;2024-03-25T04:23:05;5.60;;;2.60;;
789;SDS011;378;48.844;9.156;2024-03-25T04:25:32;7.43;;;2.75;;
789;SDS011;378;48.844;9.156;2024-03-25T04:27:59;9.10;;;3.05;;
789;SDS011;378;48.844;9.156;2024-03-25T04:30:25;6.72;;;2.55;;
789;SDS011;378;48.844;9.156;2024-03-25T04:32:51;7.45;;;2.88;;
789;SDS011;378;48.844;9.156;2024-03-25T04:35:17;4.78;;;2.80;;
789;SDS011;378;48.844;9.156;2024-03-25T04:37:43;5.50;;;3.08;;
789;SDS011;378;48.844;9.156;2024-03-25T04:40:09;9.20;;;3.30;;
789;SDS011;378;48.844;9.156;2024-03-25T04:42:40;9.00;;;2.97;;
789;SDS011;378;48.844;9.156;2024-03-25T04:45:06;6.75;;;3.28;;
789;SDS011;378;48.844;9.156;2024-03-25T04:47:32;9.30;;;3.22;;
789;SDS011;378;48.844;9.156;2024-03-25T04:49:59;12.27;;;3.13;;
789;SDS011;378;48.844;9.156;2024-03-25T04:52:25;7.68;;;3.33;;
789;SDS011;378;48.844;9.156;2024-03-25T04:54:51;11.02;;;3.10;;
789;SDS011;378;48.844;9.156;2024-03-25T04:57:17;8.18;;;2.90;;
789;SDS011;378;48.844;9.156;2024-03-25T04:59:44;11.85;;;2.92;;
789;SDS011;378;48.844;9.156;2024-03-25T05:02:10;9.57;;;3.03;;
789;SDS011;378;48.844;9.156;2024-03-25T05:04:36;6.85;;;2.95;;
789;SDS011;378;48.844;9.156;2024-03-25T05:07:02;7.70;;;2.95;;
789;SDS011;378;48.844;9.156;2024-03-25T05:09:28;8.95;;;2.78;;
789;SDS011;378;48.844;9.156;2024-03-25T05:11:54;7.47;;;2.55;;
789;SDS011;378;48.844;9.156;2024-03-25T05:14:20;8.43;;;3.20;;
789;SDS011;378;48.844;9.156;2024-03-25T05:16:46;9.68;;;2.90;;
789;SDS011;378;48.844;9.156;2024-03-25T05:19:12;8.10;;;2.80;;
789;SDS011;378;48.844;9.156;2024-03-25T05:21:38;9.05;;;2.65;;
789;SDS011;378;48.844;9.156;2024-03-25T05:24:04;6.45;;;2.80;;
789;SDS011;378;48.844;9.156;2024-03-25T05:26:30;6.43;;;2.80;;
789;SDS011;378;48.844;9.156;2024-03-25T05:28:57;8.10;;;2.97;;
789;SDS011;378;48.844;9.156;2024-03-25T05:31:23;8.57;;;2.70;;
789;SDS011;378;48.844;9.156;2024-03-25T05:33:50;10.55;;;3.03;;
789;SDS011;378;48.844;9.156;2024-03-25T05:36:16;5.97;;;3.08;;
789;SDS011;378;48.844;9.156;2024-03-25T05:38:42;6.90;;;3.10;;
789;SDS011;378;48.844;9.156;2024-03-25T05:41:09;6.28;;;2.70;;
789;SDS011;378;48.844;9.156;2024-03-25T05:43:36;7.60;;;2.63;;
789;SDS011;378;48.844;9.156;2024-03-25T05:46:02;8.23;;;2.80;;
789;SDS011;378;48.844;9.156;2024-03-25T05:48:29;5.72;;;2.85;;
789;SDS011;378;48.844;9.156;2024-03-25T05:51:05;7.78;;;2.42;;
789;SDS011;378;48.844;9.156;2024-03-25T05:53:38;3.92;;;2.53;;
789;SDS011;378;48.844;9.156;2024-03-25T05:56:07;5.93;;;3.20;;
789;SDS011;378;48.844;9.156;2024-03-25T05:58:33;5.47;;;2.70;;
789;SDS011;378;48.844;9.156;2024-03-25T06:01:01;9.10;;;2.83;;
789;SDS011;378;48.844;9.156;2024-03-25T06:03:29;8.68;;;2.80;;
789;SDS011;378;48.844;9.156;2024-03-25T06:05:56;7.10;;;2.60;;
789;SDS011;378;48.844;9.156;2024-03-25T06:08:22;8.60;;;2.90;;
789;SDS011;378;48.844;9.156;2024-03-25T06:10:50;8.52;;;3.10;;
789;SDS011;378;48.844;9.156;2024-03-25T06:13:20;7.05;;;2.63;;
789;SDS011;378;48.844;9.156;2024-03-25T06:15:46;8.52;;;2.70;;
789;SDS011;378;48.844;9.156;2024-03-25T06:18:12;5.28;;;2.83;;
789;SDS011;378;48.844;9.156;2024-03-25T06:20:38;6.72;;;2.70;;
789;SDS011;378;48.844;9.156;2024-03-25T06:23:04;9.27;;;3.30;;
789;SDS011;378;48.844;9.156;2024-03-25T06:25:31;9.63;;;3.08;;
789;SDS011;378;48.844;9.156;2024-03-25T06:27:59;9.95;;;2.65;;
789;SDS011;378;48.844;9.156;2024-03-25T06:30:24;7.10;;;2.70;;
789;SDS011;378;48.844;9.156;2024-03-25T06:33:09;6.43;;;2.75;;
789;SDS011;378;48.844;9.156;2024-03-25T06:35:53;7.95;;;3.05;;
789;SDS011;378;48.844;9.156;2024-03-25T06:38:19;10.30;;;2.90;;
789;SDS011;378;48.844;9.156;2024-03-25T06:40:46;8.80;;;2.78;;
789;SDS011;378;48.844;9.156;2024-03-25T06:43:12;5.35;;;2.83;;
789;SDS011;378;48.844;9.156;2024-03-25T06:45:38;7.93;;;2.97;;
789;SDS011;378;48.844;9.156;2024-03-25T06:48:04;6.07;;;2.75;;
789;SDS011;378;48.844;9.156;2024-03-25T06:50:31;6.53;;;2.83;;
789;SDS011;378;48.844;9.156;2024-03-25T06:52:57;6.85;;;2.78;;
789;SDS011;378;48.844;9.156;2024-03-25T06:55:23;7.32;;;3.08;;
789;SDS011;378;48.844;9.156;2024-03-25T06:57:52;7.15;;;2.97;;
789;SDS011;378;48.844;9.156;2024-03-25T07:00:18;8.40;;;2.85;;
789;SDS011;378;48.844;9.156;2024-03-25T07:02:47;8.13;;;3.63;;
789;SDS011;378;48.844;9.156;2024-03-25T07:05:13;8.80;;;3.28;;
789;SDS011;378;48.844;9.156;2024-03-25T07:07:39;9.75;;;3.70;;
789;SDS011;378;48.844;9.156;2024-03-25T07:10:05;8.77;;;3.38;;
789;SDS011;378;48.844;9.156;2024-03-25T07:12:31;12.30;;;3.85;;
789;SDS011;378;48.844;9.156;2024-03-25T07:14:57;10.00;;;3.30;;
789;SDS011;378;48.844;9.156;2024-03-25T07:17:23;8.07;;;3.25;;
789;SDS011;378;48.844;9.156;2024-03-25T07:19:50;6.20;;;3.15;;
789;SDS011;378;48.844;9.156;2024-03-25T07:22:17;10.93;;;2.92;;
789;SDS011;378;48.844;9.156;2024-03-25T07:24:43;11.32;;;3.22;;
789;SDS011;378;48.844;9.156;2024-03-25T07:27:09;7.18;;;3.03;;
789;SDS011;378;48.844;9.156;2024-03-25T07:29:36;7.90;;;3.17;;
789;SDS011;378;48.844;9.156;2024-03-25T07:32:02;7.68;;;3.50;;
789;SDS011;378;48.844;9.156;2024-03-25T07:34:28;6.18;;;3.00;;
789;SDS011;378;48.844;9.156;2024-03-25T07:36:54;10.15;;;3.50;;
789;SDS011;378;48.844;9.156;2024-03-25T07:39:20;10.65;;;2.97;;
789;SDS011;378;48.844;9.156;2024-03-25T07:41:49;6.30;;;3.10;;
789;SDS011;378;48.844;9.156;2024-03-25T07:44:15;6.18;;;2.72;;
789;SDS011;378;48.844;9.156;2024-03-25T07:46:41;11.40;;;2.90;;
789;SDS011;378;48.844;9.156;2024-03-25T07:49:07;6.15;;;2.90;;
789;SDS011;378;48.844;9.156;2024-03-25T07:51:33;9.13;;;2.67;;
789;SDS011;378;48.844;9.156;2024-03-25T07:54:00;6.85;;;2.90;;
789;SDS011;378;48.844;9.156;2024-03-25T07:56:28;8.02;;;2.65;;
789;SDS011;378;48.844;9.156;2024-03-25T07:58:55;11.35;;;2.85;;
789;SDS011;378;48.844;9.156;2024-03-25T08:01:21;10.70;;;2.83;;
789;SDS011;378;48.844;9.156;2024-03-25T08:03:47;6.78;;;2.50;;
789;SDS011;378;48.844;9.156;2024-03-25T08:06:13;9.32;;;2.85;;
789;SDS011;378;48.844;9.156;2024-03-25T08:08:38;7.68;;;2.85;;
789;SDS011;378;48.844;9.156;2024-03-25T08:11:04;8.43;;;2.53;;
789;SDS011;378;48.844;9.156;2024-03-25T08:13:30;8.82;;;2.55;;
789;SDS011;378;48.844;9.156;2024-03-25T08:15:56;8.43;;;2.50;;
789;SDS011;378;48.844;9.156;2024-03-25T08:18:26;6.53;;;2.60;;
789;SDS011;378;48.844;9.156;2024-03-25T08:20:51;5.60;;;2.22;;
789;SDS011;378;48.844;9.156;2024-03-25T08:23:17;5.68;;;2.75;;
789;SDS011;378;48.844;9.156;2024-03-25T08:25:44;5.20;;;2.53;;
789;SDS011;378;48.844;9.156;2024-03-25T08:28:09;6.80;;;2.67;;
789;SDS011;378;48.844;9.156;2024-03-25T08:30:35;4.22;;;2.13;;
789;SDS011;378;48.844;9.156;2024-03-25T08:33:01;8.77;;;2.15;;
789;SDS011;378;48.844;9.156;2024-03-25T08:35:27;2.60;;;1.50;;
789;SDS011;378;48.844;9.156;2024-03-25T08:38:02;5.63;;;1.70;;
789;SDS011;378;48.844;9.156;2024-03-25T08:40:46;3.28;;;1.70;;
789;SDS011;378;48.844;9.156;2024-03-25T08:43:12;5.55;;;1.60;;
789;SDS011;378;48.844;9.156;2024-03-25T08:45:38;5.90;;;1.70;;
789;SDS011;378;48.844;9.156;2024-03-25T08:48:08;5.90;;;1.55;;
789;SDS011;378;48.844;9.156;2024-03-25T08:50:47;5.43;;;1.67;;
789;SDS011;378;48.844;9.156;2024-03-25T08:53:23;3.55;;;1.60;;
789;SDS011;378;48.844;9.156;2024-03-25T08:55:48;4.53;;;1.70;;
789;SDS011;378;48.844;9.156;2024-03-25T08:58:14;4.55;;;1.45;;
789;SDS011;378;48.844;9.156;2024-03-25T09:00:41;2.80;;;1.20;;
789;SDS011;378;48.844;9.156;2024-03-25T09:03:07;5.25;;;1.58;;
789;SDS011;378;48.844;9.156;2024-03-25T09:05:33;2.97;;;1.40;;
789;SDS011;378;48.844;9.156;2024-03-25T09:08:00;3.13;;;1.63;;
789;SDS011;378;48.844;9.156;2024-03-25T09:10:26;4.78;;;1.77;;
789;SDS011;378;48.844;9.156;2024-03-25T09:13:11;5.43;;;1.98;;
789;SDS011;378;48.844;9.156;2024-03-25T09:15:37;5.47;;;2.08;;
789;SDS011;378;48.844;9.156;2024-03-25T09:18:03;8.95;;;2.05;;
789;SDS011;378;48.844;9.156;2024-03-25T09:20:29;9.60;;;1.77;;
789;SDS011;378;48.844;9.156;2024-03-25T09:22:55;7.47;;;2.00;;
789;SDS011;378;48.844;9.156;2024-03-25T09:25:21;3.00;;;1.60;;
789;SDS011;378;48.844;9.156;2024-03-25T09:27:48;4.97;;;1.83;;
789;SDS011;378;48.844;9.156;2024-03-25T09:30:15;6.47;;;1.67;;
789;SDS011;378;48.844;9.156;2024-03-25T09:32:44;6.75;;;1.40;;
789;SDS011;378;48.844;9.156;2024-03-25T09:35:10;5.60;;;1.88;;
789;SDS011;378;48.844;9.156;2024-03-25T09:37:36;2.47;;;1.40;;
789;SDS011;378;48.844;9.156;2024-03-25T09:40:03;2.05;;;1.17;;
789;SDS011;378;48.844;9.156;2024-03-25T09:42:49;4.82;;;1.30;;
789;SDS011;378;48.844;9.156;2024-03-25T09:45:20;4.32;;;1.40;;
789;SDS011;378;48.844;9.156;2024-03-25T09:47:53;3.65;;;1.15;;
789;SDS011;378;48.844;9.156;2024-03-25T09:50:20;4.53;;;1.30;;
789;SDS011;378;48.844;9.156;2024-03-25T09:52:50;6.85;;;1.67;;
789;SDS011;378;48.844;9.156;2024-03-25T09:55:16;4.82;;;1.25;;
789;SDS011;378;48.844;9.156;2024-03-25T09:57:44;5.70;;;1.40;;
789;SDS011;378;48.844;9.156;2024-03-25T10:00:10;1.90;;;1.20;;
789;SDS011;378;48.844;9.156;2024-03-25T10:02:41;4.88;;;1.60;;
789;SDS011;378;48.844;9.156;2024-03-25T10:05:07;3.50;;;1.50;;
789;SDS011;378;48.844;9.156;2024-03-25T10:07:34;6.07;;;1.77;;
789;SDS011;378;48.844;9.156;2024-03-25T10:10:06;3.50;;;1.60;;
789;SDS011;378;48.844;9.156;2024-03-25T10:12:32;4.93;;;1.60;;
789;SDS011;378;48.844;9.156;2024-03-25T10:15:00;4.28;;;1.48;;
789;SDS011;378;48.844;9.156;2024-03-25T10:17:26;2.75;;;1.30;;
789;SDS011;378;48.844;9.156;2024-03-25T10:19:55;3.45;;;1.50;;
789;SDS011;378;48.844;9.156;2024-03-25T10:22:22;3.88;;;1.55;;
789;SDS011;378;48.844;9.156;2024-03-25T10:24:49;2.92;;;1.40;;
789;SDS011;378;48.844;9.156;2024-03-25T10:27:19;6.47;;;1.52;;
789;SDS011;378;48.844;9.156;2024-03-25T10:29:53;4.82;;;1.20;;
789;SDS011;378;48.844;9.156;2024-03-25T10:32:22;3.67;;;1.33;;
789;SDS011;378;48.844;9.156;2024-03-25T10:34:57;4.40;;;1.42;;
789;SDS011;378;48.844;9.156;2024-03-25T10:37:23;3.67;;;1.35;;
789;SDS011;378;48.844;9.156;2024-03-25T10:39:52;2.85;;;1.40;;
789;SDS011;378;48.844;9.156;2024-03-25T10:42:26;2.70;;;1.30;;
789;SDS011;378;48.844;9.156;2024-03-25T10:44:52;4.38;;;1.30;;
789;SDS011;378;48.844;9.156;2024-03-25T10:47:22;3.25;;;1.27;;
789;SDS011;378;48.844;9.156;2024-03-25T10:49:54;2.97;;;1.10;;
789;SDS011;378;48.844;9.156;2024-03-25T10:52:26;2.17;;;1.15;;
789;SDS011;378;48.844;9.156;2024-03-25T10:54:54;3.50;;;1.58;;
789;SDS011;378;48.844;9.156;2024-03-25T10:57:20;4.20;;;1.38;;
789;SDS011;378;48.844;9.156;2024-03-25T10:59:46;1.42;;;1.00;;
789;SDS011;378;48.844;9.156;2024-03-25T11:02:14;2.80;;;1.20;;
789;SDS011;378;48.844;9.156;2024-03-25T11:04:42;2.53;;;1.30;;
789;SDS011;378;48.844;9.156;2024-03-25T11:07:10;2.35;;;1.35;;
789;SDS011;378;48.844;9.156;2024-03-25T11:09:37;4.28;;;1.42;;
789;SDS011;378;48.844;9.156;2024-03-25T11:12:04;4.90;;;1.60;;
789;SDS011;378;48.844;9.156;2024-03-25T11:14:30;5.25;;;1.52;;
789;SDS011;378;48.844;9.156;2024-03-25T11:17:00;3.58;;;1.40;;
789;SDS011;378;48.844;9.156;2024-03-25T11:19:27;3.58;;;1.50;;
789;SDS011;378;48.844;9.156;2024-03-25T11:22:05;1.83;;;1.17;;
789;SDS011;378;48.844;9.156;2024-03-25T11:24:35;5.50;;;1.38;;
789;SDS011;378;48.844;9.156;2024-03-25T11:27:05;4.45;;;1.50;;
789;SDS011;378;48.844;9.156;2024-03-25T11:29:32;6.07;;;1.90;;
789;SDS011;378;48.844;9.156;2024-03-25T11:31:59;3.70;;;1.60;;
789;SDS011;378;48.844;9.156;2024-03-25T11:34:29;3.80;;;1.60;;
789;SDS011;378;48.844;9.156;2024-03-25T11:36:55;3.70;;;1.50;;
789;SDS011;378;48.844;9.156;2024-03-25T11:39:23;3.92;;;1.60;;
789;SDS011;378;48.844;9.156;2024-03-25T11:41:52;2.90;;;1.58;;
789;SDS011;378;48.844;9.156;2024-03-25T11:44:18;4.28;;;1.70;;
789;SDS011;378;48.844;9.156;2024-03-25T11:46:44;2.55;;;1.20;;
789;SDS011;378;48.844;9.156;2024-03-25T11:49:17;2.60;;;1.20;;
789;SDS011;378;48.844;9.156;2024-03-25T11:51:43;5.18;;;1.67;;
789;SDS011;378;48.844;9.156;2024-03-25T11:54:11;3.22;;;1.67;;
789;SDS011;378;48.844;9.156;2024-03-25T11:56:39;4.15;;;1.50;;
789;SDS011;378;48.844;9.156;2024-03-25T11:59:06;4.97;;;1.70;;
789;SDS011;378;48.844;9.156;2024-03-25T12:01:32;6.00;;;1.70;;
789;SDS011;378;48.844;9.156;2024-03-25T12:04:09;3.28;;;1.52;;
789;SDS011;378;48.844;9.156;2024-03-25T12:06:42;3.42;;;1.98;;
789;SDS011;378;48.844;9.156;2024-03-25T12:09:08;2.28;;;1.40;;
789;SDS011;378;48.844;9.156;2024-03-25T12:11:52;3.88;;;1.65;;
789;SDS011;378;48.844;9.156;2024-03-25T12:14:21;4.10;;;1.38;;
789;SDS011;378;48.844;9.156;2024-03-25T12:16:47;6.65;;;1.83;;
789;SDS011;378;48.844;9.156;2024-03-25T12:19:15;4.75;;;1.80;;
789;SDS011;378;48.844;9.156;2024-03-25T12:21:41;3.13;;;1.33;;
789;SDS011;378;48.844;9.156;2024-03-25T12:24:07;3.83;;;1.73;;
789;SDS011;378;48.844;9.156;2024-03-25T12:26:34;3.38;;;1.60;;
789;SDS011;378;48.844;9.156;2024-03-25T12:29:00;4.50;;;1.90;;
789;SDS011;378;48.844;9.156;2024-03-25T12:31:28;2.83;;;1.20;;
789;SDS011;378;48.844;9.156;2024-03-25T12:33:54;2.97;;;1.60;;
789;SDS011;378;48.844;9.156;2024-03-25T12:36:20;3.65;;;1.45;;
789;SDS011;378;48.844;9.156;2024-03-25T12:38:54;3.28;;;1.38;;
789;SDS011;378;48.844;9.156;2024-03-25T12:41:21;5.07;;;1.77;;
789;SDS011;378;48.844;9.156;2024-03-25T12:43:49;2.50;;;1.80;;
789;SDS011;378;48.844;9.156;2024-03-25T12:46:16;5.38;;;1.88;;
789;SDS011;378;48.844;9.156;2024-03-25T12:48:42;3.10;;;1.73;;
789;SDS011;378;48.844;9.156;2024-03-25T12:51:12;2.80;;;1.50;;
789;SDS011;378;48.844;9.156;2024-03-25T12:53:39;6.28;;;1.98;;
789;SDS011;378;48.844;9.156;2024-03-25T12:56:05;3.85;;;1.70;;
789;SDS011;378;48.844;9.156;2024-03-25T12:58:31;3.83;;;1.80;;
789;SDS011;378;48.844;9.156;2024-03-25T13:00:57;3.20;;;1.52;;
789;SDS011;378;48.844;9.156;2024-03-25T13:03:24;5.65;;;1.80;;
789;SDS011;378;48.844;9.156;2024-03-25T13:05:50;1.20;;;1.10;;
789;SDS011;378;48.844;9.156;2024-03-25T13:08:15;4.30;;;1.85;;
789;SDS011;378;48.844;9.156;2024-03-25T13:10:42;3.33;;;2.00;;
789;SDS011;378;48.844;9.156;2024-03-25T13:13:08;4.22;;;2.08;;
789;SDS011;378;48.844;9.156;2024-03-25T13:15:34;6.88;;;1.40;;
789;SDS011;378;48.844;9.156;2024-03-25T13:18:00;3.03;;;1.83;;
789;SDS011;378;48.844;9.156;2024-03-25T13:20:27;5.55;;;1.70;;
789;SDS011;378;48.844;9.156;2024-03-25T13:22:53;3.80;;;1.60;;
789;SDS011;378;48.844;9.156;2024-03-25T13:25:22;2.80;;;1.60;;
789;SDS011;378;48.844;9.156;2024-03-25T13:27:48;3.33;;;1.48;;
789;SDS011;378;48.844;9.156;2024-03-25T13:30:14;2.95;;;1.48;;
789;SDS011;378;48.844;9.156;2024-03-25T13:32:39;5.57;;;1.70;;
789;SDS011;378;48.844;9.156;2024-03-25T13:35:05;4.57;;;1.50;;
789;SDS011;378;48.844;9.156;2024-03-25T13:37:31;5.07;;;1.55;;
789;SDS011;378;48.844;9.156;2024-03-25T13:39:57;2.58;;;1.50;;
789;SDS011;378;48.844;9.156;2024-03-25T13:42:23;3.95;;;1.48;;
789;SDS011;378;48.844;9.156;2024-03-25T13:44:49;3.97;;;1.70;;
789;SDS011;378;48.844;9.156;2024-03-25T13:47:15;3.60;;;1.42;;
789;SDS011;378;48.844;9.156;2024-03-25T13:49:41;4.47;;;1.73;;
789;SDS011;378;48.844;9.156;2024-03-25T13:52:06;3.45;;;1.33;;
789;SDS011;378;48.844;9.156;2024-03-25T13:54:32;7.43;;;2.00;;
789;SDS011;378;48.844;9.156;2024-03-25T13:56:58;3.13;;;1.45;;
789;SDS011;378;48.844;9.156;2024-03-25T13:59:24;6.32;;;1.40;;
789;SDS011;378;48.844;9.156;2024-03-25T14:01:50;4.70;;;1.52;;
789;SDS011;378;48.844;9.156;2024-03-25T14:04:18;3.75;;;1.50;;
789;SDS011;378;48.844;9.156;2024-03-25T14:06:45;3.72;;;1.50;;
789;SDS011;378;48.844;9.156;2024-03-25T14:09:24;2.97;;;1.50;;
789;SDS011;378;48.844;9.156;2024-03-25T14:11:50;2.13;;;1.50;;
789;SDS011;378;48.844;9.156;2024-03-25T14:14:16;2.78;;;1.83;;
789;SDS011;378;48.844;9.156;2024-03-25T14:16:42;3.35;;;1.40;;
789;SDS011;378;48.844;9.156;2024-03-25T14:19:08;2.63;;;1.35;;
789;SDS011;378;48.844;9.156;2024-03-25T14:21:34;3.17;;;1.50;;
789;SDS011;378;48.844;9.156;2024-03-25T14:24:00;3.10;;;1.45;;
789;SDS011;378;48.844;9.156;2024-03-25T14:26:25;3.15;;;1.55;;
789;SDS011;378;48.844;9.156;2024-03-25T14:28:51;4.72;;;1.30;;
789;SDS011;378;48.844;9.156;2024-03-25T14:31:17;4.43;;;1.83;;
789;SDS011;378;48.844;9.156;2024-03-25T14:33:43;4.07;;;1.50;;
789;SDS011;378;48.844;9.156;2024-03-25T14:36:08;1.90;;;1.17;;
789;SDS011;378;48.844;9.156;2024-03-25T14:38:34;2.85;;;1.17;;
789;SDS011;378;48.844;9.156;2024-03-25T14:41:00;3.75;;;1.23;;
789;SDS011;378;48.844;9.156;2024-03-25T14:43:26;4.80;;;1.50;;
789;SDS011;378;48.844;9.156;2024-03-25T14:45:52;3.00;;;1.20;;
789;SDS011;378;48.844;9.156;2024-03-25T14:48:18;4.75;;;1.40;;
789;SDS011;378;48.844;9.156;2024-03-25T14:50:44;4.70;;;1.35;;
789;SDS011;378;48.844;9.156;2024-03-25T14:53:10;2.05;;;1.20;;
789;SDS011;378;48.844;9.156;2024-03-25T14:55:35;3.08;;;1.42;;
789;SDS011;378;48.844;9.156;2024-03-25T14:58:01;2.55;;;1.27;;
789;SDS011;378;48.844;9.156;2024-03-25T15:00:28;1.77;;;1.20;;
789;SDS011;378;48.844;9.156;2024-03-25T15:02:53;3.03;;;1.40;;
789;SDS011;378;48.844;9.156;2024-03-25T15:05:19;1.83;;;1.05;;
789;SDS011;378;48.844;9.156;2024-03-25T15:07:45;3.83;;;1.30;;
789;SDS011;378;48.844;9.156;2024-03-25T15:10:11;3.63;;;1.40;;
789;SDS011;378;48.844;9.156;2024-03-25T15:12:37;2.08;;;1.05;;
789;SDS011;378;48.844;9.156;2024-03-25T15:15:07;4.70;;;1.40;;
789;SDS011;378;48.844;9.156;2024-03-25T15:17:35;4.43;;;1.23;;
789;SDS011;378;48.844;9.156;2024-03-25T15:20:01;2.15;;;1.08;;
789;SDS011;378;48.844;9.156;2024-03-25T15:22:29;3.40;;;1.00;;
789;SDS011;378;48.844;9.156;2024-03-25T15:24:55;3.25;;;1.15;;
789;SDS011;378;48.844;9.156;2024-03-25T15:27:21;1.75;;;1.10;;
789;SDS011;378;48.844;9.156;2024-03-25T15:29:47;2.72;;;1.20;;
789;SDS011;378;48.844;9.156;2024-03-25T15:32:13;1.90;;;1.05;;
789;SDS011;378;48.844;9.156;2024-03-25T15:34:38;5.43;;;1.42;;
789;SDS011;378;48.844;9.156;2024-03-25T15:37:04;6.53;;;1.60;;
789;SDS011;378;48.844;9.156;2024-03-25T15:39:30;4.57;;;1.60;;
789;SDS011;378;48.844;9.156;2024-03-25T15:41:56;4.70;;;1.33;;
789;SDS011;378;48.844;9.156;2024-03-25T15:44:22;3.15;;;1.30;;